sensor_id;sensor_type;location;lat;lon;timestamp;pressure;altitude;pressure_sealevel;temperature;humidity
10978;BME280;5542;48.272;10.794;2023-07-28T00:02:11;95140.03;;;16.12;80.94
10978;BME280;5542;48.272;10.794;2023-07-28T00:04:38;95135.53;;;16.13;80.31
10978;BME280;5542;48.272;10.794;2023-07-28T00:07:05;95130.00;;;16.09;79.99
10978;BME280;5542;48.272;10.794;2023-07-28T00:09:32;95136.41;;;16.03;80.21
10978;BME280;5542;48.272;10.794;2023-07-28T00:11:59;95133.78;;;15.98;80.24
10978;BME280;5542;48.272;10.794;2023-07-28T00:14:27;95128.81;;;15.92;80.41
10978;BME280;5542;48.272;10.794;2023-07-28T00:16:56;95134.34;;;15.90;80.39
10978;BME280;5542;48.272;10.794;2023-07-28T00:19:23;95128.88;;;15.81;80.90
10978;BME280;5542;48.272;10.794;2023-07-28T00:21:50;95132.34;;;15.77;81.19
10978;BME280;5542;48.272;10.794;2023-07-28T00:24:17;95121.22;;;15.75;80.94
10978;BME280;5542;48.272;10.794;2023-07-28T00:26:44;95114.88;;;15.71;81.34
10978;BME280;5542;48.272;10.794;2023-07-28T00:29:11;95114.13;;;15.65;81.49
10978;BME280;5542;48.272;10.794;2023-07-28T00:31:38;95122.34;;;15.64;81.42
10978;BME280;5542;48.272;10.794;2023-07-28T00:34:05;95113.84;;;15.61;81.27
10978;BME280;5542;48.272;10.794;2023-07-28T00:36:32;95124.47;;;15.56;81.49
10978;BME280;5542;48.272;10.794;2023-07-28T00:38:59;95118.91;;;15.58;81.22
10978;BME280;5542;48.272;10.794;2023-07-28T00:41:25;95121.34;;;15.49;81.83
10978;BME280;5542;48.272;10.794;2023-07-28T00:43:52;95129.31;;;15.44;81.95
10978;BME280;5542;48.272;10.794;2023-07-28T00:46:19;95129.84;;;15.41;82.45
10978;BME280;5542;48.272;10.794;2023-07-28T00:48:45;95127.75;;;15.33;82.60
10978;BME280;5542;48.272;10.794;2023-07-28T00:51:13;95120.88;;;15.32;82.60
10978;BME280;5542;48.272;10.794;2023-07-28T00:53:40;95122.78;;;15.26;82.72
10978;BME280;5542;48.272;10.794;2023-07-28T00:56:07;95117.22;;;15.23;82.97
10978;BME280;5542;48.272;10.794;2023-07-28T00:58:34;95118.28;;;15.22;83.14
10978;BME280;5542;48.272;10.794;2023-07-28T01:01:00;95119.63;;;15.24;82.97
10978;BME280;5542;48.272;10.794;2023-07-28T01:03:27;95124.91;;;15.24;82.87
10978;BME280;5542;48.272;10.794;2023-07-28T01:06:01;95120.94;;;15.22;82.81
10978;BME280;5542;48.272;10.794;2023-07-28T01:08:39;95115.09;;;15.25;82.21
10978;BME280;5542;48.272;10.794;2023-07-28T01:11:08;95112.97;;;15.27;82.07
10978;BME280;5542;48.272;10.794;2023-07-28T01:13:34;95116.16;;;15.24;82.32
10978;BME280;5542;48.272;10.794;2023-07-28T01:16:01;95116.72;;;15.21;82.56
10978;BME280;5542;48.272;10.794;2023-07-28T01:18:28;95115.13;;;15.20;82.43
10978;BME280;5542;48.272;10.794;2023-07-28T01:20:56;95119.63;;;15.19;82.13
10978;BME280;5542;48.272;10.794;2023-07-28T01:23:39;95116.72;;;15.21;81.87
10978;BME280;5542;48.272;10.794;2023-07-28T01:26:10;95122.81;;;15.16;81.62
10978;BME280;5542;48.272;10.794;2023-07-28T01:28:39;95116.19;;;15.14;81.76
10978;BME280;5542;48.272;10.794;2023-07-28T01:31:07;95117.25;;;15.13;81.88
10978;BME280;5542;48.272;10.794;2023-07-28T01:33:35;95119.94;;;15.07;82.01
10978;BME280;5542;48.272;10.794;2023-07-28T01:36:02;95108.56;;;15.07;81.86
10978;BME280;5542;48.272;10.794;2023-07-28T01:38:29;95108.00;;;15.15;81.09
10978;BME280;5542;48.272;10.794;2023-07-28T01:40:55;95107.75;;;15.06;81.45
10978;BME280;5542;48.272;10.794;2023-07-28T01:43:22;95107.75;;;15.11;81.07
10978;BME280;5542;48.272;10.794;2023-07-28T01:45:50;95108.84;;;15.05;81.35
10978;BME280;5542;48.272;10.794;2023-07-28T01:48:17;95103.28;;;15.02;81.53
10978;BME280;5542;48.272;10.794;2023-07-28T01:50:43;95108.84;;;14.95;82.02
10978;BME280;5542;48.272;10.794;2023-07-28T01:53:10;95107.81;;;14.96;81.93
10978;BME280;5542;48.272;10.794;2023-07-28T01:55:36;95108.63;;;14.87;82.43
10978;BME280;5542;48.272;10.794;2023-07-28T01:58:03;95117.38;;;14.82;82.70
10978;BME280;5542;48.272;10.794;2023-07-28T02:00:29;95117.38;;;14.82;82.72
10978;BME280;5542;48.272;10.794;2023-07-28T02:02:57;95117.91;;;14.79;82.94
10978;BME280;5542;48.272;10.794;2023-07-28T02:05:27;95123.97;;;14.84;82.77
10978;BME280;5542;48.272;10.794;2023-07-28T02:07:53;95120.81;;;14.82;82.61
10978;BME280;5542;48.272;10.794;2023-07-28T02:10:21;95120.28;;;14.80;82.90
10978;BME280;5542;48.272;10.794;2023-07-28T02:12:48;95121.06;;;14.81;82.53
10978;BME280;5542;48.272;10.794;2023-07-28T02:15:14;95114.97;;;14.80;82.91
10978;BME280;5542;48.272;10.794;2023-07-28T02:17:41;95117.91;;;14.79;82.92
10978;BME280;5542;48.272;10.794;2023-07-28T02:20:10;95116.06;;;14.79;82.55
10978;BME280;5542;48.272;10.794;2023-07-28T02:22:38;95114.19;;;14.80;82.27
10978;BME280;5542;48.272;10.794;2023-07-28T02:25:05;95108.91;;;14.75;82.60
10978;BME280;5542;48.272;10.794;2023-07-28T02:27:32;95114.50;;;14.73;82.58
10978;BME280;5542;48.272;10.794;2023-07-28T02:29:58;95112.09;;;14.77;82.41
10978;BME280;5542;48.272;10.794;2023-07-28T02:32:25;95104.69;;;14.74;82.47
10978;BME280;5542;48.272;10.794;2023-07-28T02:34:52;95108.66;;;14.66;82.68
10978;BME280;5542;48.272;10.794;2023-07-28T02:37:20;95103.13;;;14.73;82.49
10978;BME280;5542;48.272;10.794;2023-07-28T02:39:47;95103.63;;;14.75;82.00
10978;BME280;5542;48.272;10.794;2023-07-28T02:42:13;95103.63;;;14.70;82.33
10978;BME280;5542;48.272;10.794;2023-07-28T02:44:40;95107.63;;;14.67;82.69
10978;BME280;5542;48.272;10.794;2023-07-28T02:47:06;95107.34;;;14.69;82.68
10978;BME280;5542;48.272;10.794;2023-07-28T02:49:33;95100.72;;;14.71;82.56
10978;BME280;5542;48.272;10.794;2023-07-28T02:52:00;95110.78;;;14.74;82.29
10978;BME280;5542;48.272;10.794;2023-07-28T02:54:29;95105.22;;;14.66;82.39
10978;BME280;5542;48.272;10.794;2023-07-28T02:56:56;95103.16;;;14.63;82.81
10978;BME280;5542;48.272;10.794;2023-07-28T02:59:22;95106.53;;;14.73;82.40
10978;BME280;5542;48.272;10.794;2023-07-28T03:01:49;95105.72;;;14.83;81.69
10978;BME280;5542;48.272;10.794;2023-07-28T03:04:17;95115.53;;;14.77;82.07
10978;BME280;5542;48.272;10.794;2023-07-28T03:06:44;95105.72;;;14.83;82.09
10978;BME280;5542;48.272;10.794;2023-07-28T03:09:11;95110.47;;;14.81;82.04
10978;BME280;5542;48.272;10.794;2023-07-28T03:11:39;95113.94;;;14.71;82.57
10978;BME280;5542;48.272;10.794;2023-07-28T03:14:06;95114.19;;;14.80;82.38
10978;BME280;5542;48.272;10.794;2023-07-28T03:16:32;95114.75;;;14.77;82.57
10978;BME280;5542;48.272;10.794;2023-07-28T03:18:59;95117.38;;;14.82;82.44
10978;BME280;5542;48.272;10.794;2023-07-28T03:21:25;95113.69;;;14.78;82.12
10978;BME280;5542;48.272;10.794;2023-07-28T03:23:52;95120.03;;;14.77;82.69
10978;BME280;5542;48.272;10.794;2023-07-28T03:26:18;95121.06;;;14.81;82.33
10978;BME280;5542;48.272;10.794;2023-07-28T03:28:46;95132.75;;;14.70;83.06
10978;BME280;5542;48.272;10.794;2023-07-28T03:31:13;95133.81;;;14.69;83.13
10978;BME280;5542;48.272;10.794;2023-07-28T03:33:40;95130.66;;;14.72;82.40
10978;BME280;5542;48.272;10.794;2023-07-28T03:36:06;95126.66;;;14.74;82.22
10978;BME280;5542;48.272;10.794;2023-07-28T03:38:33;95116.59;;;14.71;82.48
10978;BME280;5542;48.272;10.794;2023-07-28T03:41:00;95125.34;;;14.67;82.60
10978;BME280;5542;48.272;10.794;2023-07-28T03:43:26;95125.91;;;14.58;83.15
10978;BME280;5542;48.272;10.794;2023-07-28T03:45:54;95127.75;;;14.58;83.26
10978;BME280;5542;48.272;10.794;2023-07-28T03:48:21;95126.94;;;14.68;82.42
10978;BME280;5542;48.272;10.794;2023-07-28T03:50:47;95138.81;;;14.75;82.30
10978;BME280;5542;48.272;10.794;2023-07-28T03:53:14;95141.22;;;14.77;82.09
10978;BME280;5542;48.272;10.794;2023-07-28T03:55:40;95137.78;;;14.71;82.53
10978;BME280;5542;48.272;10.794;2023-07-28T03:58:07;95141.78;;;14.58;83.13
10978;BME280;5542;48.272;10.794;2023-07-28T04:00:34;95136.50;;;14.53;83.77
10978;BME280;5542;48.272;10.794;2023-07-28T04:05:29;95144.69;;;14.57;83.37
10978;BME280;5542;48.272;10.794;2023-07-28T04:07:56;95143.34;;;14.59;83.46
10978;BME280;5542;48.272;10.794;2023-07-28T04:10:22;95137.28;;;14.59;83.82
10978;BME280;5542;48.272;10.794;2023-07-28T04:12:49;95134.88;;;14.52;84.09
10978;BME280;5542;48.272;10.794;2023-07-28T04:15:16;95142.81;;;14.52;84.29
10978;BME280;5542;48.272;10.794;2023-07-28T04:17:42;95149.97;;;14.52;84.28
10978;BME280;5542;48.272;10.794;2023-07-28T04:20:10;95147.59;;;14.50;84.65
10978;BME280;5542;48.272;10.794;2023-07-28T04:22:38;95148.94;;;14.58;84.19
10978;BME280;5542;48.272;10.794;2023-07-28T04:25:05;95156.59;;;14.59;84.55
10978;BME280;5542;48.272;10.794;2023-07-28T04:27:32;95150.50;;;14.64;84.61
10978;BME280;5542;48.272;10.794;2023-07-28T04:29:58;95157.09;;;14.62;85.12
10978;BME280;5542;48.272;10.794;2023-07-28T04:32:25;95153.94;;;14.65;85.46
10978;BME280;5542;48.272;10.794;2023-07-28T04:34:52;95153.94;;;14.65;86.04
10978;BME280;5542;48.272;10.794;2023-07-28T04:37:19;95148.13;;;14.68;86.33
10978;BME280;5542;48.272;10.794;2023-07-28T04:39:47;95158.13;;;14.76;86.56
10978;BME280;5542;48.272;10.794;2023-07-28T04:42:14;95155.75;;;14.84;86.89
10978;BME280;5542;48.272;10.794;2023-07-28T04:44:40;95152.56;;;14.88;87.68
10978;BME280;5542;48.272;10.794;2023-07-28T04:47:07;95152.03;;;14.96;88.25
10978;BME280;5542;48.272;10.794;2023-07-28T04:49:34;95159.69;;;15.02;88.65
10978;BME280;5542;48.272;10.794;2023-07-28T04:52:00;95149.31;;;15.11;89.03
10978;BME280;5542;48.272;10.794;2023-07-28T04:54:27;95156.19;;;15.17;89.19
10978;BME280;5542;48.272;10.794;2023-07-28T04:56:55;95160.66;;;15.22;89.75
10978;BME280;5542;48.272;10.794;2023-07-28T04:59:21;95160.13;;;15.30;89.87
10978;BME280;5542;48.272;10.794;2023-07-28T05:01:48;95170.13;;;15.43;90.00
10978;BME280;5542;48.272;10.794;2023-07-28T05:04:15;95166.59;;;15.63;89.44
10978;BME280;5542;48.272;10.794;2023-07-28T05:06:41;95162.00;;;15.79;88.59
10978;BME280;5542;48.272;10.794;2023-07-28T05:09:08;95169.34;;;15.97;86.83
10978;BME280;5542;48.272;10.794;2023-07-28T05:11:34;95173.94;;;16.21;85.03
10978;BME280;5542;48.272;10.794;2023-07-28T05:14:02;95170.63;;;16.39;84.27
10978;BME280;5542;48.272;10.794;2023-07-28T05:16:31;95178.31;;;16.41;84.84
10978;BME280;5542;48.272;10.794;2023-07-28T05:18:58;95170.50;;;16.54;84.35
10978;BME280;5542;48.272;10.794;2023-07-28T05:21:24;95175.09;;;16.78;82.94
10978;BME280;5542;48.272;10.794;2023-07-28T05:23:51;95179.50;;;16.87;82.41
10978;BME280;5542;48.272;10.794;2023-07-28T05:26:18;95173.84;;;16.94;82.36
10978;BME280;5542;48.272;10.794;2023-07-28T05:28:44;95167.59;;;17.09;82.25
10978;BME280;5542;48.272;10.794;2023-07-28T05:31:12;95176.81;;;17.17;82.43
10978;BME280;5542;48.272;10.794;2023-07-28T05:33:40;95169.81;;;17.26;80.86
10978;BME280;5542;48.272;10.794;2023-07-28T05:36:07;95177.25;;;17.48;79.78
10978;BME280;5542;48.272;10.794;2023-07-28T05:38:34;95174.63;;;17.66;77.30
10978;BME280;5542;48.272;10.794;2023-07-28T05:41:02;95176.47;;;17.90;77.28
10978;BME280;5542;48.272;10.794;2023-07-28T05:43:29;95182.69;;;17.99;76.42
10978;BME280;5542;48.272;10.794;2023-07-28T05:45:56;95175.56;;;18.13;76.18
10978;BME280;5542;48.272;10.794;2023-07-28T05:48:24;95176.19;;;18.10;77.01
10978;BME280;5542;48.272;10.794;2023-07-28T05:50:51;95183.56;;;18.13;77.17
10978;BME280;5542;48.272;10.794;2023-07-28T05:53:19;95186.75;;;18.15;76.07
10978;BME280;5542;48.272;10.794;2023-07-28T05:55:46;95185.50;;;18.08;77.56
10978;BME280;5542;48.272;10.794;2023-07-28T05:58:12;95187.44;;;18.21;76.40
10978;BME280;5542;48.272;10.794;2023-07-28T06:00:39;95195.19;;;18.36;76.12
10978;BME280;5542;48.272;10.794;2023-07-28T06:03:06;95192.88;;;18.49;75.24
10978;BME280;5542;48.272;10.794;2023-07-28T06:05:33;95198.38;;;18.38;76.68
10978;BME280;5542;48.272;10.794;2023-07-28T06:08:00;95192.28;;;18.38;75.80
10978;BME280;5542;48.272;10.794;2023-07-28T06:10:27;95201.84;;;18.39;76.66
10978;BME280;5542;48.272;10.794;2023-07-28T06:12:53;95192.03;;;18.53;75.87
10978;BME280;5542;48.272;10.794;2023-07-28T06:15:20;95191.53;;;18.65;75.62
10978;BME280;5542;48.272;10.794;2023-07-28T06:17:47;95190.28;;;18.62;75.77
10978;BME280;5542;48.272;10.794;2023-07-28T06:20:13;95195.94;;;18.75;75.92
10978;BME280;5542;48.272;10.794;2023-07-28T06:22:41;95195.97;;;18.88;74.99
10978;BME280;5542;48.272;10.794;2023-07-28T06:25:08;95197.19;;;18.96;74.09
10978;BME280;5542;48.272;10.794;2023-07-28T06:27:34;95197.97;;;18.97;74.87
10978;BME280;5542;48.272;10.794;2023-07-28T06:30:01;95200.25;;;19.03;74.52
10978;BME280;5542;48.272;10.794;2023-07-28T06:32:28;95205.31;;;19.18;73.66
10978;BME280;5542;48.272;10.794;2023-07-28T06:34:54;95204.72;;;19.22;73.57
10978;BME280;5542;48.272;10.794;2023-07-28T06:37:21;95200.88;;;19.28;72.51
10978;BME280;5542;48.272;10.794;2023-07-28T06:39:49;95206.59;;;19.21;73.49
10978;BME280;5542;48.272;10.794;2023-07-28T06:42:16;95201.34;;;19.16;73.85
10978;BME280;5542;48.272;10.794;2023-07-28T06:44:49;95206.88;;;19.19;73.93
10978;BME280;5542;48.272;10.794;2023-07-28T06:47:15;95207.28;;;19.27;73.45
10978;BME280;5542;48.272;10.794;2023-07-28T06:49:42;95208.69;;;19.24;72.78
10978;BME280;5542;48.272;10.794;2023-07-28T06:52:09;95212.72;;;19.22;73.08
10978;BME280;5542;48.272;10.794;2023-07-28T06:54:36;95212.22;;;19.19;73.53
10978;BME280;5542;48.272;10.794;2023-07-28T06:57:05;95214.38;;;19.31;72.04
10978;BME280;5542;48.272;10.794;2023-07-28T06:59:31;95220.13;;;19.52;71.29
10978;BME280;5542;48.272;10.794;2023-07-28T07:01:58;95225.66;;;19.56;71.33
10978;BME280;5542;48.272;10.794;2023-07-28T07:04:25;95228.97;;;19.66;70.51
10978;BME280;5542;48.272;10.794;2023-07-28T07:06:51;95224.69;;;19.79;69.88
10978;BME280;5542;48.272;10.794;2023-07-28T07:09:18;95217.56;;;19.75;69.27
10978;BME280;5542;48.272;10.794;2023-07-28T07:11:45;95216.97;;;19.78;69.85
10978;BME280;5542;48.272;10.794;2023-07-28T07:14:13;95220.94;;;19.94;68.46
10978;BME280;5542;48.272;10.794;2023-07-28T07:16:40;95223.28;;;19.95;68.41
10978;BME280;5542;48.272;10.794;2023-07-28T07:19:07;95223.63;;;20.16;67.83
10978;BME280;5542;48.272;10.794;2023-07-28T07:21:34;95216.91;;;20.19;67.03
10978;BME280;5542;48.272;10.794;2023-07-28T07:24:01;95221.25;;;20.15;66.03
10978;BME280;5542;48.272;10.794;2023-07-28T07:26:28;95230.75;;;20.07;66.84
10978;BME280;5542;48.272;10.794;2023-07-28T07:28:56;95233.25;;;20.40;65.26
10978;BME280;5542;48.272;10.794;2023-07-28T07:31:24;95230.44;;;20.59;65.79
10978;BME280;5542;48.272;10.794;2023-07-28T07:33:51;95235.84;;;20.90;64.47
10978;BME280;5542;48.272;10.794;2023-07-28T07:36:19;95222.19;;;21.22;62.80
10978;BME280;5542;48.272;10.794;2023-07-28T07:38:46;95229.41;;;21.22;64.75
10978;BME280;5542;48.272;10.794;2023-07-28T07:41:14;95230.56;;;21.61;62.81
10978;BME280;5542;48.272;10.794;2023-07-28T07:43:44;95223.75;;;22.20;59.62
10978;BME280;5542;48.272;10.794;2023-07-28T07:46:11;95235.59;;;22.37;62.88
10978;BME280;5542;48.272;10.794;2023-07-28T07:48:40;95229.59;;;22.74;60.82
10978;BME280;5542;48.272;10.794;2023-07-28T07:51:06;95225.75;;;23.10;60.44
10978;BME280;5542;48.272;10.794;2023-07-28T07:53:33;95229.19;;;23.75;55.90
10978;BME280;5542;48.272;10.794;2023-07-28T07:56:01;95214.13;;;23.83;54.62
10978;BME280;5542;48.272;10.794;2023-07-28T07:58:28;95228.53;;;24.28;53.62
10978;BME280;5542;48.272;10.794;2023-07-28T08:00:55;95213.34;;;24.53;52.88
10978;BME280;5542;48.272;10.794;2023-07-28T08:03:21;95212.25;;;24.55;53.29
10978;BME280;5542;48.272;10.794;2023-07-28T08:05:50;95214.59;;;24.56;52.38
10978;BME280;5542;48.272;10.794;2023-07-28T08:08:17;95219.78;;;24.61;52.88
10978;BME280;5542;48.272;10.794;2023-07-28T08:10:45;95220.94;;;24.72;51.62
10978;BME280;5542;48.272;10.794;2023-07-28T08:13:12;95220.63;;;24.32;52.51
10978;BME280;5542;48.272;10.794;2023-07-28T08:15:39;95220.63;;;24.32;52.36
10978;BME280;5542;48.272;10.794;2023-07-28T08:18:05;95226.59;;;24.38;52.80
10978;BME280;5542;48.272;10.794;2023-07-28T08:20:32;95234.63;;;24.17;53.63
10978;BME280;5542;48.272;10.794;2023-07-28T08:23:00;95243.44;;;23.96;53.64
10978;BME280;5542;48.272;10.794;2023-07-28T08:25:26;95236.47;;;23.74;54.54
10978;BME280;5542;48.272;10.794;2023-07-28T08:27:53;95242.72;;;23.40;56.21
10978;BME280;5542;48.272;10.794;2023-07-28T08:30:20;95243.25;;;23.16;57.28
10978;BME280;5542;48.272;10.794;2023-07-28T08:32:47;95251.00;;;23.18;56.67
10978;BME280;5542;48.272;10.794;2023-07-28T08:35:14;95253.25;;;22.98;57.47
10978;BME280;5542;48.272;10.794;2023-07-28T08:37:40;95251.53;;;22.94;57.24
10978;BME280;5542;48.272;10.794;2023-07-28T08:40:10;95251.50;;;22.85;57.63
10978;BME280;5542;48.272;10.794;2023-07-28T08:42:38;95250.09;;;22.79;57.93
10978;BME280;5542;48.272;10.794;2023-07-28T08:45:06;95262.38;;;22.63;58.63
10978;BME280;5542;48.272;10.794;2023-07-28T08:47:33;95259.72;;;22.80;58.36
10978;BME280;5542;48.272;10.794;2023-07-28T08:50:00;95249.31;;;22.70;58.08
10978;BME280;5542;48.272;10.794;2023-07-28T08:52:27;95244.25;;;22.68;59.22
10978;BME280;5542;48.272;10.794;2023-07-28T08:54:54;95245.22;;;22.90;60.11
10978;BME280;5542;48.272;10.794;2023-07-28T08:57:22;95247.94;;;23.37;58.04
10978;BME280;5542;48.272;10.794;2023-07-28T08:59:48;95244.88;;;23.64;57.27
10978;BME280;5542;48.272;10.794;2023-07-28T09:02:18;95243.31;;;23.93;55.55
10978;BME280;5542;48.272;10.794;2023-07-28T09:04:46;95241.34;;;24.02;55.44
10978;BME280;5542;48.272;10.794;2023-07-28T09:07:14;95253.28;;;24.13;55.41
10978;BME280;5542;48.272;10.794;2023-07-28T09:09:40;95250.22;;;24.23;53.84
10978;BME280;5542;48.272;10.794;2023-07-28T09:12:08;95249.03;;;24.12;55.19
10978;BME280;5542;48.272;10.794;2023-07-28T09:14:36;95264.97;;;24.17;54.33
10978;BME280;5542;48.272;10.794;2023-07-28T09:17:08;95264.31;;;24.20;53.73
10978;BME280;5542;48.272;10.794;2023-07-28T09:19:34;95249.94;;;24.16;54.49
10978;BME280;5542;48.272;10.794;2023-07-28T09:22:01;95252.91;;;24.23;54.76
10978;BME280;5542;48.272;10.794;2023-07-28T09:24:30;95248.31;;;24.24;54.16
10978;BME280;5542;48.272;10.794;2023-07-28T09:26:58;95247.97;;;24.05;53.62
10978;BME280;5542;48.272;10.794;2023-07-28T09:29:26;95256.22;;;23.99;55.52
10978;BME280;5542;48.272;10.794;2023-07-28T09:32:02;95255.88;;;24.01;54.16
10978;BME280;5542;48.272;10.794;2023-07-28T09:34:30;95263.00;;;23.97;53.60
10978;BME280;5542;48.272;10.794;2023-07-28T09:36:57;95237.84;;;23.81;53.76
10978;BME280;5542;48.272;10.794;2023-07-28T09:39:25;95256.09;;;23.49;54.99
10978;BME280;5542;48.272;10.794;2023-07-28T09:41:52;95256.63;;;23.34;55.82
10978;BME280;5542;48.272;10.794;2023-07-28T09:44:22;95262.84;;;23.17;56.43
10978;BME280;5542;48.272;10.794;2023-07-28T09:46:50;95262.19;;;23.11;56.92
10978;BME280;5542;48.272;10.794;2023-07-28T09:49:21;95255.41;;;23.22;56.50
10978;BME280;5542;48.272;10.794;2023-07-28T09:51:52;95254.44;;;23.27;57.56
10978;BME280;5542;48.272;10.794;2023-07-28T09:54:23;95249.69;;;23.33;57.32
10978;BME280;5542;48.272;10.794;2023-07-28T09:56:54;95256.03;;;23.28;58.57
10978;BME280;5542;48.272;10.794;2023-07-28T09:59:24;95247.34;;;23.31;57.52
10978;BME280;5542;48.272;10.794;2023-07-28T10:01:55;95255.50;;;23.35;57.75
10978;BME280;5542;48.272;10.794;2023-07-28T10:04:23;95247.28;;;23.40;57.52
10978;BME280;5542;48.272;10.794;2023-07-28T10:06:50;95249.78;;;23.45;57.63
10978;BME280;5542;48.272;10.794;2023-07-28T10:09:22;95253.53;;;23.61;56.93
10978;BME280;5542;48.272;10.794;2023-07-28T10:11:49;95261.34;;;23.45;57.35
10978;BME280;5542;48.272;10.794;2023-07-28T10:16:48;95250.25;;;23.94;55.22
10978;BME280;5542;48.272;10.794;2023-07-28T10:19:19;95258.34;;;24.15;54.28
10978;BME280;5542;48.272;10.794;2023-07-28T10:21:47;95250.22;;;24.23;53.46
10978;BME280;5542;48.272;10.794;2023-07-28T10:24:14;95246.97;;;24.39;53.37
10978;BME280;5542;48.272;10.794;2023-07-28T10:26:41;95262.81;;;24.40;53.13
10978;BME280;5542;48.272;10.794;2023-07-28T10:29:10;95252.00;;;24.19;51.37
10978;BME280;5542;48.272;10.794;2023-07-28T10:31:51;95257.44;;;24.02;53.09
10978;BME280;5542;48.272;10.794;2023-07-28T10:34:22;95254.78;;;24.02;53.79
10978;BME280;5542;48.272;10.794;2023-07-28T10:36:58;95261.88;;;24.36;52.74
10978;BME280;5542;48.272;10.794;2023-07-28T10:39:25;95248.69;;;24.64;50.65
10978;BME280;5542;48.272;10.794;2023-07-28T10:42:03;95246.81;;;24.77;51.09
10978;BME280;5542;48.272;10.794;2023-07-28T10:44:30;95261.47;;;24.67;50.21
10978;BME280;5542;48.272;10.794;2023-07-28T10:46:57;95265.81;;;24.60;50.03
10978;BME280;5542;48.272;10.794;2023-07-28T10:49:24;95269.47;;;24.55;49.85
10978;BME280;5542;48.272;10.794;2023-07-28T10:51:51;95269.59;;;24.59;50.49
10978;BME280;5542;48.272;10.794;2023-07-28T10:54:19;95269.69;;;24.50;51.38
10978;BME280;5542;48.272;10.794;2023-07-28T10:56:47;95268.22;;;24.73;50.57
10978;BME280;5542;48.272;10.794;2023-07-28T10:59:15;95262.47;;;24.96;50.69
10978;BME280;5542;48.272;10.794;2023-07-28T11:01:42;95270.13;;;25.06;48.56
10978;BME280;5542;48.272;10.794;2023-07-28T11:04:11;95268.06;;;24.91;49.14
10978;BME280;5542;48.272;10.794;2023-07-28T11:06:42;95255.75;;;24.90;49.56
10978;BME280;5542;48.272;10.794;2023-07-28T11:09:09;95256.31;;;24.95;50.01
10978;BME280;5542;48.272;10.794;2023-07-28T11:11:38;95267.19;;;25.20;50.07
10978;BME280;5542;48.272;10.794;2023-07-28T11:14:06;95267.44;;;25.39;50.13
10978;BME280;5542;48.272;10.794;2023-07-28T11:16:33;95268.66;;;25.29;49.94
10978;BME280;5542;48.272;10.794;2023-07-28T11:19:01;95258.38;;;25.32;48.29
10978;BME280;5542;48.272;10.794;2023-07-28T11:21:28;95260.88;;;25.16;47.68
10978;BME280;5542;48.272;10.794;2023-07-28T11:23:55;95260.06;;;25.03;49.21
10978;BME280;5542;48.272;10.794;2023-07-28T11:26:22;95269.84;;;24.87;49.53
10978;BME280;5542;48.272;10.794;2023-07-28T11:28:51;95270.63;;;24.87;49.40
10978;BME280;5542;48.272;10.794;2023-07-28T11:31:23;95259.06;;;24.87;49.17
10978;BME280;5542;48.272;10.794;2023-07-28T11:33:50;95257.63;;;25.10;49.04
10978;BME280;5542;48.272;10.794;2023-07-28T11:36:22;95261.38;;;25.30;48.21
10978;BME280;5542;48.272;10.794;2023-07-28T11:38:49;95260.16;;;25.40;48.93
10978;BME280;5542;48.272;10.794;2023-07-28T11:41:17;95249.16;;;25.33;48.37
10978;BME280;5542;48.272;10.794;2023-07-28T11:43:43;95258.31;;;25.19;49.35
10978;BME280;5542;48.272;10.794;2023-07-28T11:46:35;95261.94;;;25.23;49.33
10978;BME280;5542;48.272;10.794;2023-07-28T11:49:11;95265.53;;;25.27;50.60
10978;BME280;5542;48.272;10.794;2023-07-28T11:51:40;95250.19;;;25.40;50.04
10978;BME280;5542;48.272;10.794;2023-07-28T11:54:10;95249.31;;;25.61;48.97
10978;BME280;5542;48.272;10.794;2023-07-28T11:56:37;95250.97;;;25.53;48.45
10978;BME280;5542;48.272;10.794;2023-07-28T11:59:04;95254.34;;;25.62;48.19
10978;BME280;5542;48.272;10.794;2023-07-28T12:01:30;95255.25;;;25.66;47.98
10978;BME280;5542;48.272;10.794;2023-07-28T12:03:59;95258.28;;;25.52;49.76
10978;BME280;5542;48.272;10.794;2023-07-28T12:07:00;95260.44;;;25.59;50.20
10978;BME280;5542;48.272;10.794;2023-07-28T12:09:28;95263.91;;;25.60;49.65
10978;BME280;5542;48.272;10.794;2023-07-28T12:11:54;95247.84;;;25.63;48.98
10978;BME280;5542;48.272;10.794;2023-07-28T12:14:31;95256.59;;;25.48;48.41
10978;BME280;5542;48.272;10.794;2023-07-28T12:17:01;95259.59;;;25.34;49.64
10978;BME280;5542;48.272;10.794;2023-07-28T12:19:29;95264.28;;;25.25;50.23
10978;BME280;5542;48.272;10.794;2023-07-28T12:21:59;95262.97;;;25.31;50.50
10978;BME280;5542;48.272;10.794;2023-07-28T12:24:26;95266.13;;;25.45;50.68
10978;BME280;5542;48.272;10.794;2023-07-28T12:26:53;95269.59;;;25.46;50.16
10978;BME280;5542;48.272;10.794;2023-07-28T12:29:19;95271.88;;;25.56;49.06
10978;BME280;5542;48.272;10.794;2023-07-28T12:31:47;95267.59;;;25.55;49.04
10978;BME280;5542;48.272;10.794;2023-07-28T12:34:13;95267.13;;;25.53;49.14
10978;BME280;5542;48.272;10.794;2023-07-28T12:36:42;95261.44;;;25.54;48.05
10978;BME280;5542;48.272;10.794;2023-07-28T12:39:08;95271.06;;;25.56;47.52
10978;BME280;5542;48.272;10.794;2023-07-28T12:41:35;95265.13;;;25.50;47.70
10978;BME280;5542;48.272;10.794;2023-07-28T12:44:02;95261.47;;;25.21;49.04
10978;BME280;5542;48.272;10.794;2023-07-28T12:46:29;95268.00;;;25.33;48.29
10978;BME280;5542;48.272;10.794;2023-07-28T12:48:55;95259.69;;;25.25;48.63
10978;BME280;5542;48.272;10.794;2023-07-28T12:51:22;95261.84;;;25.32;49.57
10978;BME280;5542;48.272;10.794;2023-07-28T12:53:50;95266.00;;;25.42;47.49
10978;BME280;5542;48.272;10.794;2023-07-28T12:56:17;95268.75;;;25.21;49.69
10978;BME280;5542;48.272;10.794;2023-07-28T12:58:43;95257.44;;;25.27;48.13
10978;BME280;5542;48.272;10.794;2023-07-28T13:01:10;95262.38;;;25.25;47.81
10978;BME280;5542;48.272;10.794;2023-07-28T13:03:37;95271.06;;;25.10;48.60
10978;BME280;5542;48.272;10.794;2023-07-28T13:06:04;95281.88;;;25.01;50.17
10978;BME280;5542;48.272;10.794;2023-07-28T13:08:31;95280.72;;;25.11;48.61